Time;durP1;ratioP1;P1;durP2;ratioP2;P2;SDS_P1;SDS_P2;PMS_P1;PMS_P2;Temp;Humidity;BMP_temperature;BMP_pressure;BME280_temperature;BME280_humidity;BME280_pressure;Samples;Min_cycle;Max_cycle;Signal;HPM_P1;HPM_P2
2022/10/27 00:00:30;;;;;;;;;;;;;;;15.12;85.22;101193.13;5033334;28;826;-63
2022/10/27 00:02:55;;;;;;;;;;;;;;;15.11;85.45;101192.28;5033197;28;988;-63
2022/10/27 00:05:21;;;;;;;;;;;;;;;15.11;85.14;101197.81;5033117;28;1254;-63
2022/10/27 00:07:47;;;;;;;;;;;;;;;15.10;85.50;101209.13;5032995;28;844;-63
2022/10/27 00:10:12;;;;;;;;;;;;;;;15.10;85.18;101206.38;5031946;28;2402;-63
2022/10/27 00:12:37;;;;;;;;;;;;;;;15.10;85.07;101203.63;5033017;28;1902;-63
2022/10/27 00:15:02;;;;;;;;;;;;;;;15.10;85.37;101206.38;5033083;28;1027;-63
2022/10/27 00:17:28;;;;;;;;;;;;;;;15.09;85.34;101201.97;5033098;28;1318;-63
2022/10/27 00:19:53;;;;;;;;;;;;;;;15.08;85.17;101197.56;5033002;28;889;-63
2022/10/27 00:22:18;;;;;;;;;;;;;;;15.08;84.91;101206.66;5032909;28;1182;-63
2022/10/27 00:24:43;;;;;;;;;;;;;;;15.08;85.12;101208.59;5033005;28;880;-63
2022/10/27 00:27:08;;;;;;;;;;;;;;;15.08;85.28;101205.84;5032762;28;1157;-63
2022/10/27 00:29:33;;;;;;;;;;;;;;;15.06;84.93;101205.31;5032872;28;952;-63
2022/10/27 00:31:59;;;;;;;;;;;;;;;15.06;85.49;101206.13;5033047;28;873;-63
2022/10/27 00:34:24;;;;;;;;;;;;;;;15.06;84.97;101202.53;5032809;28;1949;-63
2022/10/27 00:36:49;;;;;;;;;;;;;;;15.05;84.89;101220.22;5032750;28;1183;-63
2022/10/27 00:39:14;;;;;;;;;;;;;;;15.05;84.90;101217.47;5032885;28;968;-63
2022/10/27 00:41:40;;;;;;;;;;;;;;;15.04;85.03;101222.16;5031597;28;829;-62
2022/10/27 00:44:24;;;;;;;;;;;;;;;15.03;85.44;101217.75;5032703;28;828;-62
2022/10/27 00:46:49;;;;;;;;;;;;;;;15.04;85.28;101229.59;5032688;28;1267;-63
2022/10/27 00:49:17;;;;;;;;;;;;;;;15.05;84.69;101231.25;5032815;28;900;-63
2022/10/27 00:51:46;;;;;;;;;;;;;;;15.03;84.94;101226.03;5032625;28;1830;-63
2022/10/27 00:54:12;;;;;;;;;;;;;;;15.04;85.39;101237.88;5032678;28;1898;-63
2022/10/27 00:56:38;;;;;;;;;;;;;;;15.03;85.34;101234.31;5032323;28;1281;-63
2022/10/27 00:59:03;;;;;;;;;;;;;;;15.03;84.95;101239.00;5032748;28;1145;-63
2022/10/27 01:01:28;;;;;;;;;;;;;;;15.02;85.70;101234.59;5034049;28;984;-63
2022/10/27 01:03:55;;;;;;;;;;;;;;;15.01;84.86;101238.44;5036461;28;971;-63
2022/10/27 01:06:20;;;;;;;;;;;;;;;15.02;85.21;101235.41;5036013;28;1331;-62
2022/10/27 01:08:45;;;;;;;;;;;;;;;15.01;85.29;101231.00;5036148;28;1032;-63
2022/10/27 01:11:10;;;;;;;;;;;;;;;14.99;84.67;101233.22;5036132;28;1035;-63
2022/10/27 01:13:36;;;;;;;;;;;;;;;15.00;84.84;101239.56;5036059;28;1902;-63
2022/10/27 01:16:16;;;;;;;;;;;;;;;15.00;84.85;101234.06;5035802;28;1225;-63
2022/10/27 01:18:46;;;;;;;;;;;;;;;14.99;85.28;101230.47;5036211;28;976;-63
2022/10/27 01:21:30;;;;;;;;;;;;;;;14.97;85.33;101238.19;5035958;28;818;-63
2022/10/27 01:23:58;;;;;;;;;;;;;;;14.97;84.80;101237.41;5036162;28;787;-63
2022/10/27 01:26:43;;;;;;;;;;;;;;;14.97;84.83;101232.69;5035546;28;1211;-62
2022/10/27 01:29:22;;;;;;;;;;;;;;;14.98;85.23;101233.50;5036091;28;853;-63
2022/10/27 01:31:51;;;;;;;;;;;;;;;14.97;85.44;101238.19;5035766;28;1030;-63
2022/10/27 01:34:24;;;;;;;;;;;;;;;14.95;84.73;101243.22;5035632;28;1905;-63
2022/10/27 01:36:54;;;;;;;;;;;;;;;14.97;84.64;101245.69;5035479;28;1197;-63
2022/10/27 01:39:49;;;;;;;;;;;;;;;14.98;85.25;101244.53;5035581;28;980;-63
2022/10/27 01:42:18;;;;;;;;;;;;;;;14.95;84.64;101239.63;5034783;28;1171;-63
2022/10/27 01:44:45;;;;;;;;;;;;;;;14.95;84.81;101251.47;5035640;28;868;-63
2022/10/27 01:47:11;;;;;;;;;;;;;;;14.96;84.73;101247.63;5035281;28;1145;-63
2022/10/27 01:49:40;;;;;;;;;;;;;;;14.94;84.97;101249.84;5035488;28;833;-63
2022/10/27 01:52:06;;;;;;;;;;;;;;;14.93;84.81;101250.13;5035297;28;1736;-62
2022/10/27 01:54:32;;;;;;;;;;;;;;;14.92;84.74;101245.72;5035296;28;2024;-63
2022/10/27 01:57:04;;;;;;;;;;;;;;;14.92;84.82;101242.97;5034717;28;1196;-63
2022/10/27 01:59:45;;;;;;;;;;;;;;;14.92;85.34;101243.78;5035286;28;876;-63
2022/10/27 02:02:20;;;;;;;;;;;;;;;14.90;85.34;101248.75;5035177;28;1018;-63
2022/10/27 02:05:21;;;;;;;;;;;;;;;14.91;85.29;101250.41;5035163;28;1066;-63
2022/10/27 02:07:54;;;;;;;;;;;;;;;14.91;85.13;101249.59;5032349;28;1091;-63
2022/10/27 02:10:19;;;;;;;;;;;;;;;14.91;84.78;101247.66;5034883;28;1003;-62
2022/10/27 02:12:45;;;;;;;;;;;;;;;14.89;85.13;101241.59;5034675;28;1970;-63
2022/10/27 02:15:23;;;;;;;;;;;;;;;14.90;85.40;101247.94;5034931;28;1209;-63
2022/10/27 02:17:49;;;;;;;;;;;;;;;14.89;85.06;101247.09;5034573;28;840;-63
2022/10/27 02:20:24;;;;;;;;;;;;;;;14.88;85.24;101245.50;5034921;28;1279;-63
2022/10/27 02:22:52;;;;;;;;;;;;;;;14.88;84.86;101245.50;5034933;28;824;-63
2022/10/27 02:25:20;;;;;;;;;;;;;;;14.87;85.08;101252.13;5034683;28;1193;-63
2022/10/27 02:27:50;;;;;;;;;;;;;;;14.87;85.07;101249.34;5034440;28;877;-63
2022/10/27 02:30:15;;;;;;;;;;;;;;;14.87;84.60;101254.03;5034724;28;999;-63
2022/10/27 02:32:41;;;;;;;;;;;;;;;14.87;84.98;101254.03;5034619;28;1898;-63
2022/10/27 02:35:08;;;;;;;;;;;;;;;14.86;84.54;101252.41;5034544;28;1205;-63
2022/10/27 02:37:35;;;;;;;;;;;;;;;14.86;85.02;101263.44;5034214;28;1038;-63
2022/10/27 02:40:01;;;;;;;;;;;;;;;14.86;84.72;101263.44;5034566;28;817;-63
2022/10/27 02:42:26;;;;;;;;;;;;;;;14.86;84.41;101266.19;5034532;28;864;-63
2022/10/27 02:44:51;;;;;;;;;;;;;;;14.85;84.72;101261.78;5034337;28;956;-63
2022/10/27 02:47:17;;;;;;;;;;;;;;;14.85;84.63;101264.53;5034007;28;1193;-63
2022/10/27 02:49:43;;;;;;;;;;;;;;;14.85;84.56;101267.28;5034444;28;873;-63
2022/10/27 02:52:08;;;;;;;;;;;;;;;14.84;85.02;101271.16;5034196;28;943;-63
2022/10/27 02:54:33;;;;;;;;;;;;;;;14.84;84.66;101265.66;5034244;28;1902;-63
2022/10/27 02:56:58;;;;;;;;;;;;;;;14.84;84.94;101271.16;5032610;28;1197;-62
2022/10/27 02:59:24;;;;;;;;;;;;;;;14.83;84.70;101272.25;5034153;28;1032;-62
2022/10/27 03:01:49;;;;;;;;;;;;;;;14.83;85.27;101273.09;5034079;28;1109;-63
2022/10/27 03:04:14;;;;;;;;;;;;;;;14.82;85.12;101276.13;5034176;28;822;-62
2022/10/27 03:06:39;;;;;;;;;;;;;;;14.81;85.27;101282.75;5042270;28;1190;-62
2022/10/27 03:09:04;;;;;;;;;;;;;;;14.81;84.45;101274.47;5053870;28;809;-61
2022/10/27 03:11:29;;;;;;;;;;;;;;;14.80;85.14;101276.41;5052539;28;916;-62
2022/10/27 03:13:55;;;;;;;;;;;;;;;14.80;85.23;101286.66;5053755;28;2246;-62
2022/10/27 03:16:20;;;;;;;;;;;;;;;14.81;84.26;101282.75;5053489;28;1279;-62
2022/10/27 03:18:45;;;;;;;;;;;;;;;14.80;85.19;101281.13;5053775;28;980;-62
2022/10/27 03:21:10;;;;;;;;;;;;;;;14.81;85.07;101285.50;5053607;28;992;-62
2022/10/27 03:23:35;;;;;;;;;;;;;;;14.79;85.26;101282.25;5053005;28;849;-63
2022/10/27 03:26:00;;;;;;;;;;;;;;;14.79;84.36;101285.00;5053189;28;1289;-62
2022/10/27 03:28:29;;;;;;;;;;;;;;;14.79;84.81;101285.00;5053716;28;841;-63
2022/10/27 03:30:54;;;;;;;;;;;;;;;14.79;84.94;101293.25;5053499;28;921;-62
2022/10/27 03:33:19;;;;;;;;;;;;;;;14.79;84.22;101290.50;5053427;28;1890;-61
2022/10/27 03:35:44;;;;;;;;;;;;;;;14.77;84.63;101293.56;5053133;28;1266;-62
2022/10/27 03:38:11;;;;;;;;;;;;;;;14.76;84.41;101292.72;5053379;28;999;-62
2022/10/27 03:40:37;;;;;;;;;;;;;;;14.75;84.76;101285.56;5053285;28;866;-63
2022/10/27 03:43:02;;;;;;;;;;;;;;;14.76;85.20;101284.44;5053342;28;904;-62
2022/10/27 03:45:27;;;;;;;;;;;;;;;14.74;85.06;101286.66;5053300;28;1246;-62
2022/10/27 03:48:06;;;;;;;;;;;;;;;14.74;84.53;101288.59;5052969;28;837;-62
2022/10/27 03:50:31;;;;;;;;;;;;;;;14.74;84.51;101292.19;5053205;28;1015;-62
2022/10/27 03:52:57;;;;;;;;;;;;;;;14.73;85.18;101292.47;5053120;28;1949;-62
2022/10/27 03:55:22;;;;;;;;;;;;;;;14.73;84.92;101289.72;5052990;28;1298;-62
2022/10/27 03:57:48;;;;;;;;;;;;;;;14.74;85.06;101296.88;5052968;28;1070;-62
2022/10/27 04:00:13;;;;;;;;;;;;;;;14.73;84.99;101287.78;5053127;28;1062;-62
2022/10/27 04:02:38;;;;;;;;;;;;;;;14.73;85.00;101296.03;5053218;28;921;-63
2022/10/27 04:05:03;;;;;;;;;;;;;;;14.74;84.04;101302.38;5053035;28;1038;-62
2022/10/27 04:07:29;;;;;;;;;;;;;;;14.72;84.22;101299.91;5052723;28;1217;-62
2022/10/27 04:09:54;;;;;;;;;;;;;;;14.71;84.74;101295.53;5052977;28;980;-62
2022/10/27 04:12:19;;;;;;;;;;;;;;;14.71;84.31;101294.72;5052914;28;1955;-62
2022/10/27 04:14:44;;;;;;;;;;;;;;;14.72;84.44;101299.91;5053017;28;809;-62
2022/10/27 04:17:09;;;;;;;;;;;;;;;14.72;84.13;101296.31;5052629;28;1177;-62
2022/10/27 04:19:34;;;;;;;;;;;;;;;14.70;85.09;101293.06;5053090;28;1027;-62
2022/10/27 04:21:59;;;;;;;;;;;;;;;14.71;83.93;101294.72;5053230;28;778;-63
2022/10/27 04:24:25;;;;;;;;;;;;;;;14.70;84.95;101290.31;5052956;28;901;-62
2022/10/27 04:26:50;;;;;;;;;;;;;;;14.79;84.44;101298.78;5052594;28;1309;-62
2022/10/27 04:29:15;;;;;;;;;;;;;;;14.88;84.69;101303.38;5053122;28;832;-62
2022/10/27 04:31:40;;;;;;;;;;;;;;;14.95;84.74;101300.28;5052969;28;979;-62
2022/10/27 04:34:05;;;;;;;;;;;;;;;14.97;85.30;101298.84;5052775;28;1973;-61
2022/10/27 04:36:30;;;;;;;;;;;;;;;14.99;85.31;101304.09;5056054;28;1216;-62
2022/10/27 04:38:56;;;;;;;;;;;;;;;15.00;85.00;101301.03;5056705;28;885;-62
2022/10/27 04:41:21;;;;;;;;;;;;;;;15.01;85.12;101307.38;5056891;28;1003;-62
2022/10/27 04:43:49;;;;;;;;;;;;;;;15.02;85.77;101306.28;5056731;28;991;-61
2022/10/27 04:46:15;;;;;;;;;;;;;;;15.05;85.85;101300.19;5056386;28;1273;-62
2022/10/27 04:48:40;;;;;;;;;;;;;;;15.06;85.75;101288.03;5055808;28;884;-62
2022/10/27 04:51:05;;;;;;;;;;;;;;;15.07;85.46;101296.00;5054459;28;1050;-62
2022/10/27 04:53:30;;;;;;;;;;;;;;;15.09;86.10;101288.28;5054471;28;1969;-61
2022/10/27 04:55:55;;;;;;;;;;;;;;;15.10;86.12;101289.09;5053998;28;1197;-62
2022/10/27 04:58:20;;;;;;;;;;;;;;;15.11;85.96;101294.31;5054358;28;842;-62
2022/10/27 05:00:47;;;;;;;;;;;;;;;15.10;85.81;101292.69;5054292;28;976;-62
2022/10/27 05:03:13;;;;;;;;;;;;;;;15.12;86.33;101306.19;5054126;28;829;-63
2022/10/27 05:05:38;;;;;;;;;;;;;;;15.10;86.05;101302.88;5055863;28;1256;-62
2022/10/27 05:08:03;;;;;;;;;;;;;;;15.11;85.72;101299.84;5055666;28;861;-61
2022/10/27 05:10:29;;;;;;;;;;;;;;;15.10;85.97;101305.63;5056153;28;805;-62
2022/10/27 05:12:54;;;;;;;;;;;;;;;15.10;86.37;101300.94;5055938;28;1963;-63
2022/10/27 05:15:19;;;;;;;;;;;;;;;15.10;86.04;101298.19;5055990;28;1214;-62
2022/10/27 05:17:45;;;;;;;;;;;;;;;15.12;86.11;101307.00;5055734;28;991;-61
2022/10/27 05:20:10;;;;;;;;;;;;;;;15.12;86.44;101295.97;5055991;28;896;-62
2022/10/27 05:22:36;;;;;;;;;;;;;;;15.13;85.97;101308.66;5055854;28;894;-62
2022/10/27 05:25:01;;;;;;;;;;;;;;;15.13;86.21;101310.59;5055866;28;1078;-62
2022/10/27 05:27:26;;;;;;;;;;;;;;;15.13;86.51;101314.16;5055495;28;1217;-61
2022/10/27 05:29:51;;;;;;;;;;;;;;;15.12;85.90;101312.50;5055765;28;995;-62
2022/10/27 05:32:17;;;;;;;;;;;;;;;15.12;85.57;101308.94;5055734;28;853;-61
2022/10/27 05:34:42;;;;;;;;;;;;;;;15.11;86.02;101310.88;5055567;28;1945;-62
2022/10/27 05:37:07;;;;;;;;;;;;;;;15.11;85.65;101305.34;5054216;28;1377;-63
2022/10/27 05:39:32;;;;;;;;;;;;;;;15.12;86.18;101297.91;5055583;28;975;-62
2022/10/27 05:41:58;;;;;;;;;;;;;;;15.11;86.40;101299.84;5055576;28;1039;-62
2022/10/27 05:44:23;;;;;;;;;;;;;;;15.12;85.92;101304.25;5054620;28;1387;-61
2022/10/27 05:46:48;;;;;;;;;;;;;;;15.11;86.38;101293.50;5054438;28;1276;-62
2022/10/27 05:49:13;;;;;;;;;;;;;;;15.13;85.87;101297.63;5055365;28;857;-62
2022/10/27 05:51:38;;;;;;;;;;;;;;;15.13;85.85;101299.56;5055239;28;1016;-61
2022/10/27 05:54:03;;;;;;;;;;;;;;;15.13;85.74;101296.78;5055192;28;1890;-62
2022/10/27 05:56:28;;;;;;;;;;;;;;;15.13;86.19;101300.38;5054760;28;1273;-62
2022/10/27 05:58:54;;;;;;;;;;;;;;;15.13;85.94;101307.81;5055000;28;897;-61
2022/10/27 06:01:19;;;;;;;;;;;;;;;15.13;86.09;101296.78;5055039;28;1023;-62
2022/10/27 06:03:44;;;;;;;;;;;;;;;15.12;86.02;101304.25;5055093;28;885;-62
2022/10/27 06:06:09;;;;;;;;;;;;;;;15.14;85.56;101303.97;5054700;28;1211;-62
2022/10/27 06:08:35;;;;;;;;;;;;;;;15.13;85.64;101299.56;5054782;28;896;-61
2022/10/27 06:11:00;;;;;;;;;;;;;;;15.12;85.59;101295.97;5055082;28;936;-61
2022/10/27 06:13:26;;;;;;;;;;;;;;;15.12;85.59;101295.16;5054931;28;1960;-62
2022/10/27 06:15:51;;;;;;;;;;;;;;;15.12;85.95;101304.25;5054705;28;1306;-62
2022/10/27 06:18:16;;;;;;;;;;;;;;;15.12;86.17;101292.38;5054902;28;872;-61
2022/10/27 06:20:42;;;;;;;;;;;;;;;15.11;85.89;101296.25;5054782;28;876;-62
2022/10/27 06:23:07;;;;;;;;;;;;;;;15.11;85.66;101299.84;5054932;28;932;-61
2022/10/27 06:25:32;;;;;;;;;;;;;;;15.12;85.69;101298.72;5055374;28;1287;-62
2022/10/27 06:27:58;;;;;;;;;;;;;;;15.12;85.58;101303.41;5054346;28;979;-62
2022/10/27 06:30:23;;;;;;;;;;;;;;;15.13;85.45;101307.81;5054664;28;892;-62
2022/10/27 06:32:48;;;;;;;;;;;;;;;15.12;86.00;101307.00;5054508;28;1957;-62
2022/10/27 06:35:13;;;;;;;;;;;;;;;15.12;85.81;101308.94;5054504;28;1221;-62
2022/10/27 06:37:39;;;;;;;;;;;;;;;15.12;86.01;101315.28;5054235;28;1046;-61
2022/10/27 06:40:05;;;;;;;;;;;;;;;15.12;85.95;101312.50;5054452;28;872;-62
2022/10/27 06:42:31;;;;;;;;;;;;;;;15.12;85.45;101322.72;5054388;28;1181;-63
2022/10/27 06:44:56;;;;;;;;;;;;;;;15.13;85.75;101313.34;5054428;28;882;-62
2022/10/27 06:47:21;;;;;;;;;;;;;;;15.13;85.90;101316.91;5053961;28;1166;-62
2022/10/27 06:49:46;;;;;;;;;;;;;;;15.11;85.55;101316.38;5054256;28;976;-62
2022/10/27 06:52:11;;;;;;;;;;;;;;;15.13;85.55;101321.63;5054213;28;845;-62
2022/10/27 06:54:37;;;;;;;;;;;;;;;15.13;85.38;101318.84;5054098;28;1894;-61
2022/10/27 06:57:02;;;;;;;;;;;;;;;15.13;85.70;101324.38;5053518;28;1321;-62
2022/10/27 06:59:27;;;;;;;;;;;;;;;15.14;85.64;101320.50;5053132;28;897;-62
2022/10/27 07:01:52;;;;;;;;;;;;;;;15.15;86.01;101324.88;5054004;28;1055;-62
2022/10/27 07:04:17;;;;;;;;;;;;;;;15.17;85.48;101330.94;5053949;28;792;-61
2022/10/27 07:06:42;;;;;;;;;;;;;;;15.17;85.75;101327.34;5053599;28;1212;-61
2022/10/27 07:09:08;;;;;;;;;;;;;;;15.17;85.77;101330.94;5053841;28;1039;-61
2022/10/27 07:11:33;;;;;;;;;;;;;;;15.17;85.69;101335.63;5053879;28;837;-62
2022/10/27 07:13:58;;;;;;;;;;;;;;;15.17;85.67;101330.94;5053756;28;1964;-61
2022/10/27 07:16:23;;;;;;;;;;;;;;;15.16;85.46;101329.28;5053417;28;1204;-62
2022/10/27 07:18:48;;;;;;;;;;;;;;;15.16;85.93;101332.03;5053745;28;980;-61
2022/10/27 07:21:14;;;;;;;;;;;;;;;15.17;85.62;101336.44;5053634;28;853;-62
2022/10/27 07:23:39;;;;;;;;;;;;;;;15.17;86.18;101336.44;5053576;28;1054;-62
2022/10/27 07:26:05;;;;;;;;;;;;;;;15.17;86.03;101338.38;5053523;28;1301;-61
2022/10/27 07:28:30;;;;;;;;;;;;;;;15.16;85.66;101343.06;5053657;28;861;-62
2022/10/27 07:30:55;;;;;;;;;;;;;;;15.17;85.46;101341.97;5053629;28;899;-61
2022/10/27 07:33:20;;;;;;;;;;;;;;;15.16;85.75;101343.06;5053391;28;1897;-60
2022/10/27 07:35:49;;;;;;;;;;;;;;;15.18;85.63;101345.53;5053188;28;1205;-62
2022/10/27 07:38:14;;;;;;;;;;;;;;;15.18;85.74;101351.88;5053359;28;1146;-62
2022/10/27 07:40:40;;;;;;;;;;;;;;;15.18;85.76;101343.63;5053563;28;999;-62
2022/10/27 07:43:05;;;;;;;;;;;;;;;15.20;85.98;101354.34;5053480;28;849;-61
2022/10/27 07:45:30;;;;;;;;;;;;;;;15.19;85.69;101356.28;5053604;28;1300;-62
2022/10/27 07:47:56;;;;;;;;;;;;;;;15.18;85.90;101357.41;5053110;28;1047;-61
2022/10/27 07:50:23;;;;;;;;;;;;;;;15.19;86.07;101361.81;5053265;28;813;-61
2022/10/27 07:52:49;;;;;;;;;;;;;;;15.20;85.69;101352.44;5053185;28;1948;-61
2022/10/27 07:55:16;;;;;;;;;;;;;;;15.22;85.52;101352.13;5053129;28;1192;-62
2022/10/27 07:57:41;;;;;;;;;;;;;;;15.20;86.12;101349.66;5053095;28;825;-61
2022/10/27 08:00:11;;;;;;;;;;;;;;;15.22;85.69;101364.00;5053153;28;1003;-62
2022/10/27 08:02:36;;;;;;;;;;;;;;;15.21;85.64;101359.59;5053190;28;888;-62
2022/10/27 08:05:01;;;;;;;;;;;;;;;15.22;85.70;101363.16;5053036;28;1050;-61
2022/10/27 08:07:27;;;;;;;;;;;;;;;15.22;86.15;101357.66;5052790;28;1165;-61
2022/10/27 08:09:52;;;;;;;;;;;;;;;15.23;86.28;101359.28;5053660;28;896;-62
2022/10/27 08:12:17;;;;;;;;;;;;;;;15.23;86.19;101357.34;5057308;28;983;-61
2022/10/27 08:14:42;;;;;;;;;;;;;;;15.24;85.97;101353.47;5057104;28;1955;-62
2022/10/27 08:17:08;;;;;;;;;;;;;;;15.24;86.24;101359.00;5056898;28;1190;-61
2022/10/27 08:19:33;;;;;;;;;;;;;;;15.26;86.18;101359.53;5057140;28;790;-61
2022/10/27 08:21:58;;;;;;;;;;;;;;;15.26;86.49;101367.81;5057076;28;1034;-61
2022/10/27 08:24:23;;;;;;;;;;;;;;;15.26;85.72;101370.56;5057039;28;793;-61
2022/10/27 08:26:48;;;;;;;;;;;;;;;15.26;86.13;101367.81;5056723;28;1260;-62
2022/10/27 08:29:13;;;;;;;;;;;;;;;15.28;86.30;101373.03;5056855;28;850;-61
2022/10/27 08:31:38;;;;;;;;;;;;;;;15.26;86.13;101373.31;5056893;28;1023;-61
2022/10/27 08:34:04;;;;;;;;;;;;;;;15.27;85.76;101369.44;5056726;28;1889;-61
2022/10/27 08:36:31;;;;;;;;;;;;;;;15.27;86.16;101363.94;5056491;28;1156;-62
2022/10/27 08:38:56;;;;;;;;;;;;;;;15.27;85.77;101363.09;5056962;28;892;-61
2022/10/27 08:41:21;;;;;;;;;;;;;;;15.27;85.72;101357.59;5056720;28;983;-61
2022/10/27 08:43:46;;;;;;;;;;;;;;;15.26;86.48;101359.53;5056635;28;1007;-61
2022/10/27 08:46:27;;;;;;;;;;;;;;;15.29;85.99;101361.72;5056354;28;1188;-62
2022/10/27 08:48:54;;;;;;;;;;;;;;;15.27;86.24;101361.19;5056378;28;869;-61
2022/10/27 08:51:21;;;;;;;;;;;;;;;15.29;86.08;101364.47;5056393;28;1744;-61
2022/10/27 08:53:48;;;;;;;;;;;;;;;15.27;85.83;101361.19;5056420;28;1953;-62
2022/10/27 08:56:14;;;;;;;;;;;;;;;15.23;86.26;101356.50;5056519;28;1297;-62
2022/10/27 08:58:41;;;;;;;;;;;;;;;15.19;85.98;101358.22;5056401;28;1023;-61
2022/10/27 09:01:18;;;;;;;;;;;;;;;15.15;86.22;101356.03;5056354;28;836;-63
2022/10/27 09:03:46;;;;;;;;;;;;;;;15.14;86.77;101351.63;5056551;28;884;-63
2022/10/27 09:06:23;;;;;;;;;;;;;;;15.12;86.90;101342.03;5056017;28;1289;-63
2022/10/27 09:08:55;;;;;;;;;;;;;;;15.10;86.55;101353.34;5056161;28;988;-63
2022/10/27 09:11:22;;;;;;;;;;;;;;;15.09;86.49;101339.84;5055610;28;1028;-61
2022/10/27 09:14:06;;;;;;;;;;;;;;;15.09;86.34;101343.41;5056024;28;1893;-62
2022/10/27 09:16:35;;;;;;;;;;;;;;;15.09;86.48;101335.16;5055848;28;1197;-63
2022/10/27 09:19:03;;;;;;;;;;;;;;;15.09;86.15;101326.88;5056012;28;825;-63
2022/10/27 09:21:30;;;;;;;;;;;;;;;15.08;86.36;101325.22;5054948;28;834;-62
2022/10/27 09:24:04;;;;;;;;;;;;;;;15.08;86.07;101316.13;5055879;28;1063;-63
2022/10/27 09:26:30;;;;;;;;;;;;;;;15.10;86.04;101313.91;5055359;28;1791;-63
2022/10/27 09:28:56;;;;;;;;;;;;;;;15.09;86.39;101317.78;5055901;28;847;-63
2022/10/27 09:31:30;;;;;;;;;;;;;;;15.08;86.42;101324.41;5055760;28;1008;-63
2022/10/27 09:34:27;;;;;;;;;;;;;;;15.07;86.18;101315.31;5055678;28;1886;-63
2022/10/27 09:36:53;;;;;;;;;;;;;;;15.06;85.95;101316.41;5054027;28;1333;-62
2022/10/27 09:39:19;;;;;;;;;;;;;;;15.07;85.93;101307.03;5055757;28;837;-63
2022/10/27 09:41:44;;;;;;;;;;;;;;;15.06;86.18;101307.31;5055602;28;740;-62
2022/10/27 09:44:15;;;;;;;;;;;;;;;15.07;85.99;101311.72;5055593;28;1169;-62
2022/10/27 09:46:41;;;;;;;;;;;;;;;15.05;86.26;101309.28;5055298;28;1185;-62
2022/10/27 09:49:06;;;;;;;;;;;;;;;15.05;86.41;101303.78;5055482;28;1043;-63
2022/10/27 09:51:50;;;;;;;;;;;;;;;15.05;86.08;101309.28;5055346;28;1011;-63
2022/10/27 09:54:32;;;;;;;;;;;;;;;15.04;85.84;101304.06;5055697;28;1953;-63
2022/10/27 09:57:01;;;;;;;;;;;;;;;15.06;86.15;101307.31;5055051;28;1192;-62
2022/10/27 09:59:28;;;;;;;;;;;;;;;15.04;85.73;101304.88;5055393;28;829;-63
2022/10/27 10:01:56;;;;;;;;;;;;;;;15.06;85.67;101296.28;5055261;28;987;-62
2022/10/27 10:04:24;;;;;;;;;;;;;;;15.05;85.85;101298.25;5055409;28;883;-63
2022/10/27 10:07:12;;;;;;;;;;;;;;;15.05;86.08;101294.66;5054959;28;1260;-63
2022/10/27 10:09:40;;;;;;;;;;;;;;;15.04;85.98;101282.81;5054832;28;1271;-63
2022/10/27 10:12:22;;;;;;;;;;;;;;;15.05;85.48;101280.88;5054950;28;1134;-63
2022/10/27 10:14:48;;;;;;;;;;;;;;;15.05;85.93;101283.66;5055054;28;1894;-63
2022/10/27 10:17:31;;;;;;;;;;;;;;;15.04;85.87;101284.75;5054708;28;1185;-64
2022/10/27 10:19:56;;;;;;;;;;;;;;;15.05;85.49;101286.41;5055012;28;735;-63
2022/10/27 10:22:32;;;;;;;;;;;;;;;14.71;86.03;101232.16;5054876;28;1000;-63
2022/10/27 10:25:15;;;;;;;;;;;;;;;15.04;85.45;101285.56;5054784;28;889;-63
2022/10/27 10:27:43;;;;;;;;;;;;;;;15.05;86.05;101292.75;5054454;28;884;-63
2022/10/27 10:30:16;;;;;;;;;;;;;;;15.05;85.52;101284.47;5055037;28;813;-63
2022/10/27 10:32:46;;;;;;;;;;;;;;;15.06;86.05;101285.25;5054449;28;1957;-63
2022/10/27 10:35:30;;;;;;;;;;;;;;;15.06;85.48;101282.50;5054526;28;1215;-63
2022/10/27 10:37:56;;;;;;;;;;;;;;;15.06;85.96;101279.75;5054308;28;999;-63
2022/10/27 10:40:21;;;;;;;;;;;;;;;15.07;85.25;101275.88;5054424;28;984;-63
2022/10/27 10:42:48;;;;;;;;;;;;;;;15.09;85.38;101281.94;5054381;28;998;-63
2022/10/27 10:45:16;;;;;;;;;;;;;;;15.08;85.70;101278.34;5054330;28;1297;-63
2022/10/27 10:47:45;;;;;;;;;;;;;;;15.09;85.26;101270.91;5054245;28;882;-63
2022/10/27 10:50:12;;;;;;;;;;;;;;;15.09;85.02;101270.91;5054310;28;897;-63
2022/10/27 10:52:38;;;;;;;;;;;;;;;15.09;85.32;101260.69;5054295;28;1953;-63
2022/10/27 10:55:07;;;;;;;;;;;;;;;15.13;85.42;101261.78;5054202;28;1028;-63
2022/10/27 10:57:35;;;;;;;;;;;;;;;15.19;85.26;101256.19;5053745;28;942;-63
2022/10/27 11:00:01;;;;;;;;;;;;;;;15.25;85.03;101255.81;5054023;28;806;-62
2022/10/27 11:02:30;;;;;;;;;;;;;;;15.27;84.74;101258.28;5053941;28;1897;-62
2022/10/27 11:05:18;;;;;;;;;;;;;;;15.24;85.12;101253.34;5054161;28;865;-63
2022/10/27 11:07:47;;;;;;;;;;;;;;;15.22;84.96;101248.16;5053850;28;857;-63
2022/10/27 11:10:14;;;;;;;;;;;;;;;15.21;84.96;101245.69;5053928;28;809;-63
2022/10/27 11:12:44;;;;;;;;;;;;;;;15.21;85.45;101243.75;5053718;28;1898;-63
2022/10/27 11:15:17;;;;;;;;;;;;;;;15.20;85.00;101236.59;5053727;28;1197;-63
2022/10/27 11:17:44;;;;;;;;;;;;;;;15.23;85.26;101219.44;5053664;28;857;-63
2022/10/27 11:20:16;;;;;;;;;;;;;;;15.23;85.52;101215.84;5053769;28;1062;-63
2022/10/27 11:22:42;;;;;;;;;;;;;;;15.23;85.50;101210.34;5053714;28;984;-63
2022/10/27 11:25:16;;;;;;;;;;;;;;;15.24;85.22;101204.53;5053510;28;1002;-63
2022/10/27 11:27:56;;;;;;;;;;;;;;;15.25;85.48;101203.44;5053637;28;944;-63
2022/10/27 11:30:26;;;;;;;;;;;;;;;15.24;85.12;101201.78;5053698;28;805;-62
2022/10/27 11:33:16;;;;;;;;;;;;;;;15.25;85.31;101197.09;5053453;28;1890;-63
2022/10/27 11:35:41;;;;;;;;;;;;;;;15.26;85.62;101191.28;5053392;28;1187;-62
2022/10/27 11:38:15;;;;;;;;;;;;;;;15.26;85.38;101185.75;5053459;28;730;-62
2022/10/27 11:40:50;;;;;;;;;;;;;;;15.30;85.37;101188.75;5053482;28;809;-63
2022/10/27 11:43:32;;;;;;;;;;;;;;;15.30;85.57;101184.06;5053391;28;1003;-63
2022/10/27 11:46:00;;;;;;;;;;;;;;;15.31;85.33;101187.66;5052345;28;1205;-63
2022/10/27 11:48:30;;;;;;;;;;;;;;;15.34;85.79;101190.63;5053311;28;825;-63
2022/10/27 11:51:14;;;;;;;;;;;;;;;15.38;85.61;101186.16;5053159;28;1008;-63
2022/10/27 11:53:39;;;;;;;;;;;;;;;15.41;86.02;101177.28;5053266;28;1898;-62
2022/10/27 11:56:10;;;;;;;;;;;;;;;15.41;85.99;101174.53;5052912;28;1205;-63
2022/10/27 11:58:48;;;;;;;;;;;;;;;15.40;85.65;101172.88;5053425;28;876;-63
2022/10/27 12:01:20;;;;;;;;;;;;;;;15.42;86.28;101178.09;5053309;28;972;-62
2022/10/27 12:03:45;;;;;;;;;;;;;;;15.43;86.01;101180.56;5053225;28;1031;-62
2022/10/27 12:06:15;;;;;;;;;;;;;;;15.44;85.91;101179.47;5052911;28;1240;-63
2022/10/27 12:08:46;;;;;;;;;;;;;;;15.46;86.10;101173.66;5053137;28;1526;-62
2022/10/27 12:11:11;;;;;;;;;;;;;;;15.45;86.46;101169.25;5053159;28;984;-61
2022/10/27 12:13:54;;;;;;;;;;;;;;;15.45;86.46;101170.06;5052996;28;1968;-62
2022/10/27 12:16:27;;;;;;;;;;;;;;;15.48;86.27;101165.91;5052986;28;1196;-61
2022/10/27 12:18:55;;;;;;;;;;;;;;;15.47;86.35;101159.56;5053035;28;980;-62
2022/10/27 12:21:24;;;;;;;;;;;;;;;15.50;86.34;101170.00;5052938;28;932;-62
2022/10/27 12:23:53;;;;;;;;;;;;;;;15.51;86.54;101160.59;5052884;28;902;-62
2022/10/27 12:26:27;;;;;;;;;;;;;;;15.51;86.17;101149.56;5052769;28;1209;-61
2022/10/27 12:28:53;;;;;;;;;;;;;;;15.51;86.51;101145.97;5052933;28;817;-62
2022/10/27 12:31:22;;;;;;;;;;;;;;;15.54;86.07;101147.38;5052925;28;821;-62
2022/10/27 12:33:54;;;;;;;;;;;;;;;15.54;86.15;101145.44;5052734;28;1914;-62
2022/10/27 12:36:38;;;;;;;;;;;;;;;15.56;86.14;101145.13;5052615;28;1211;-62
2022/10/27 12:39:17;;;;;;;;;;;;;;;15.56;86.35;101134.09;5052844;28;921;-62
2022/10/27 12:41:50;;;;;;;;;;;;;;;15.56;86.25;101134.09;5052889;28;786;-62
2022/10/27 12:44:18;;;;;;;;;;;;;;;15.58;86.00;101129.91;5052869;28;825;-62
2022/10/27 12:47:01;;;;;;;;;;;;;;;15.60;86.33;101122.16;5052449;28;1261;-62
2022/10/27 12:49:29;;;;;;;;;;;;;;;15.60;86.33;101121.31;5052795;28;992;-62
2022/10/27 12:52:01;;;;;;;;;;;;;;;15.61;86.57;101118.28;5052712;28;984;-62
2022/10/27 12:54:39;;;;;;;;;;;;;;;15.63;86.10;101117.97;5052696;28;1898;-61